sensor_id;sensor_type;location;lat;lon;timestamp;P1;durP1;ratioP1;P2;durP2;ratioP2
12171;SDS011;6149;52.418;13.668;2023-06-14T00:02:06;3.60;;;2.63;;
12171;SDS011;6149;52.418;13.668;2023-06-14T00:04:34;5.10;;;2.80;;
12171;SDS011;6149;52.418;13.668;2023-06-14T00:07:06;3.83;;;2.63;;
12171;SDS011;6149;52.418;13.668;2023-06-14T00:09:35;4.73;;;2.50;;
12171;SDS011;6149;52.418;13.668;2023-06-14T00:12:01;3.40;;;2.87;;
12171;SDS011;6149;52.418;13.668;2023-06-14T00:14:31;3.37;;;2.70;;
12171;SDS011;6149;52.418;13.668;2023-06-14T00:17:01;3.50;;;2.50;;
12171;SDS011;6149;52.418;13.668;2023-06-14T00:19:32;4.97;;;2.60;;
12171;SDS011;6149;52.418;13.668;2023-06-14T00:22:01;3.40;;;2.70;;
12171;SDS011;6149;52.418;13.668;2023-06-14T00:24:32;3.20;;;2.80;;
12171;SDS011;6149;52.418;13.668;2023-06-14T00:27:00;3.77;;;3.17;;
12171;SDS011;6149;52.418;13.668;2023-06-14T00:29:26;3.47;;;3.17;;
12171;SDS011;6149;52.418;13.668;2023-06-14T00:31:53;5.30;;;3.33;;
12171;SDS011;6149;52.418;13.668;2023-06-14T00:34:19;5.43;;;3.17;;
12171;SDS011;6149;52.418;13.668;2023-06-14T00:36:48;3.07;;;2.77;;
12171;SDS011;6149;52.418;13.668;2023-06-14T00:39:15;5.97;;;3.10;;
12171;SDS011;6149;52.418;13.668;2023-06-14T00:41:44;4.43;;;3.30;;
12171;SDS011;6149;52.418;13.668;2023-06-14T00:44:11;4.07;;;2.80;;
12171;SDS011;6149;52.418;13.668;2023-06-14T00:46:39;4.10;;;2.93;;
12171;SDS011;6149;52.418;13.668;2023-06-14T00:49:05;5.67;;;3.20;;
12171;SDS011;6149;52.418;13.668;2023-06-14T00:51:33;6.47;;;3.40;;
12171;SDS011;6149;52.418;13.668;2023-06-14T00:54:04;3.70;;;3.30;;
12171;SDS011;6149;52.418;13.668;2023-06-14T00:56:35;4.37;;;3.03;;
12171;SDS011;6149;52.418;13.668;2023-06-14T00:59:08;4.63;;;3.10;;
12171;SDS011;6149;52.418;13.668;2023-06-14T01:01:37;3.63;;;3.27;;
12171;SDS011;6149;52.418;13.668;2023-06-14T01:04:05;4.17;;;2.93;;
12171;SDS011;6149;52.418;13.668;2023-06-14T01:06:36;4.27;;;3.20;;
12171;SDS011;6149;52.418;13.668;2023-06-14T01:09:11;4.90;;;3.10;;
12171;SDS011;6149;52.418;13.668;2023-06-14T01:11:47;8.57;;;3.60;;
12171;SDS011;6149;52.418;13.668;2023-06-14T01:14:29;4.23;;;3.27;;
12171;SDS011;6149;52.418;13.668;2023-06-14T01:16:59;5.60;;;3.90;;
12171;SDS011;6149;52.418;13.668;2023-06-14T01:19:26;3.70;;;3.37;;
12171;SDS011;6149;52.418;13.668;2023-06-14T01:21:54;3.77;;;3.37;;
12171;SDS011;6149;52.418;13.668;2023-06-14T01:24:23;6.00;;;3.40;;
12171;SDS011;6149;52.418;13.668;2023-06-14T01:26:50;5.60;;;4.00;;
12171;SDS011;6149;52.418;13.668;2023-06-14T01:29:20;6.00;;;4.23;;
12171;SDS011;6149;52.418;13.668;2023-06-14T01:31:48;6.60;;;3.80;;
12171;SDS011;6149;52.418;13.668;2023-06-14T01:34:15;4.37;;;3.80;;
12171;SDS011;6149;52.418;13.668;2023-06-14T01:36:44;5.63;;;4.07;;
12171;SDS011;6149;52.418;13.668;2023-06-14T01:39:12;6.30;;;3.77;;
12171;SDS011;6149;52.418;13.668;2023-06-14T01:41:44;6.33;;;4.47;;
12171;SDS011;6149;52.418;13.668;2023-06-14T01:44:13;6.73;;;4.83;;
12171;SDS011;6149;52.418;13.668;2023-06-14T01:46:43;5.73;;;4.20;;
12171;SDS011;6149;52.418;13.668;2023-06-14T01:49:11;6.83;;;4.70;;
12171;SDS011;6149;52.418;13.668;2023-06-14T01:51:39;5.03;;;4.43;;
12171;SDS011;6149;52.418;13.668;2023-06-14T01:54:07;4.87;;;4.10;;
12171;SDS011;6149;52.418;13.668;2023-06-14T01:56:35;5.13;;;4.63;;
12171;SDS011;6149;52.418;13.668;2023-06-14T01:59:05;4.60;;;3.97;;
12171;SDS011;6149;52.418;13.668;2023-06-14T02:01:32;5.97;;;4.10;;
12171;SDS011;6149;52.418;13.668;2023-06-14T02:04:02;4.83;;;4.33;;
12171;SDS011;6149;52.418;13.668;2023-06-14T02:06:30;5.70;;;4.30;;
12171;SDS011;6149;52.418;13.668;2023-06-14T02:08:58;5.83;;;4.37;;
12171;SDS011;6149;52.418;13.668;2023-06-14T02:11:24;5.17;;;4.67;;
12171;SDS011;6149;52.418;13.668;2023-06-14T02:13:52;5.90;;;4.73;;
12171;SDS011;6149;52.418;13.668;2023-06-14T02:16:21;6.03;;;5.07;;
12171;SDS011;6149;52.418;13.668;2023-06-14T02:18:49;5.47;;;4.60;;
12171;SDS011;6149;52.418;13.668;2023-06-14T02:21:17;6.60;;;4.30;;
12171;SDS011;6149;52.418;13.668;2023-06-14T02:23:45;5.20;;;4.57;;
12171;SDS011;6149;52.418;13.668;2023-06-14T02:26:11;5.73;;;4.23;;
12171;SDS011;6149;52.418;13.668;2023-06-14T02:28:39;5.30;;;4.67;;
12171;SDS011;6149;52.418;13.668;2023-06-14T02:31:07;7.17;;;5.30;;
12171;SDS011;6149;52.418;13.668;2023-06-14T02:33:46;5.17;;;4.67;;
12171;SDS011;6149;52.418;13.668;2023-06-14T02:36:15;5.80;;;4.50;;
12171;SDS011;6149;52.418;13.668;2023-06-14T02:38:43;5.57;;;4.63;;
12171;SDS011;6149;52.418;13.668;2023-06-14T02:41:10;5.50;;;4.60;;
12171;SDS011;6149;52.418;13.668;2023-06-14T02:43:38;6.33;;;4.90;;
12171;SDS011;6149;52.418;13.668;2023-06-14T02:46:05;8.40;;;5.33;;
12171;SDS011;6149;52.418;13.668;2023-06-14T02:48:33;6.60;;;4.47;;
12171;SDS011;6149;52.418;13.668;2023-06-14T02:51:08;8.60;;;5.00;;
12171;SDS011;6149;52.418;13.668;2023-06-14T02:53:36;8.53;;;4.90;;
12171;SDS011;6149;52.418;13.668;2023-06-14T02:56:04;5.37;;;4.43;;
12171;SDS011;6149;52.418;13.668;2023-06-14T02:58:32;6.40;;;5.60;;
12171;SDS011;6149;52.418;13.668;2023-06-14T03:01:01;5.70;;;4.57;;
12171;SDS011;6149;52.418;13.668;2023-06-14T03:03:29;6.27;;;5.43;;
12171;SDS011;6149;52.418;13.668;2023-06-14T03:05:56;5.70;;;4.77;;
12171;SDS011;6149;52.418;13.668;2023-06-14T03:08:23;5.83;;;4.90;;
12171;SDS011;6149;52.418;13.668;2023-06-14T03:10:52;5.30;;;4.80;;
12171;SDS011;6149;52.418;13.668;2023-06-14T03:13:21;5.97;;;4.90;;
12171;SDS011;6149;52.418;13.668;2023-06-14T03:15:50;5.77;;;5.10;;
12171;SDS011;6149;52.418;13.668;2023-06-14T03:18:18;5.63;;;5.03;;
12171;SDS011;6149;52.418;13.668;2023-06-14T03:20:47;6.67;;;4.93;;
12171;SDS011;6149;52.418;13.668;2023-06-14T03:23:16;7.20;;;5.40;;
12171;SDS011;6149;52.418;13.668;2023-06-14T03:25:45;5.57;;;5.07;;
12171;SDS011;6149;52.418;13.668;2023-06-14T03:28:11;5.93;;;5.33;;
12171;SDS011;6149;52.418;13.668;2023-06-14T03:30:39;6.43;;;5.83;;
12171;SDS011;6149;52.418;13.668;2023-06-14T03:33:08;6.67;;;5.17;;
12171;SDS011;6149;52.418;13.668;2023-06-14T03:35:37;7.83;;;5.60;;
12171;SDS011;6149;52.418;13.668;2023-06-14T03:38:06;6.60;;;5.43;;
12171;SDS011;6149;52.418;13.668;2023-06-14T03:40:41;9.23;;;5.47;;
12171;SDS011;6149;52.418;13.668;2023-06-14T03:43:11;6.73;;;5.17;;
12171;SDS011;6149;52.418;13.668;2023-06-14T03:45:38;5.33;;;4.83;;
12171;SDS011;6149;52.418;13.668;2023-06-14T03:48:06;7.83;;;5.53;;
12171;SDS011;6149;52.418;13.668;2023-06-14T03:50:36;7.30;;;6.13;;
12171;SDS011;6149;52.418;13.668;2023-06-14T03:53:03;6.47;;;5.60;;
12171;SDS011;6149;52.418;13.668;2023-06-14T03:55:32;6.97;;;5.60;;
12171;SDS011;6149;52.418;13.668;2023-06-14T03:58:03;6.50;;;5.90;;
12171;SDS011;6149;52.418;13.668;2023-06-14T04:00:47;7.87;;;6.20;;
12171;SDS011;6149;52.418;13.668;2023-06-14T04:03:16;8.20;;;6.03;;
12171;SDS011;6149;52.418;13.668;2023-06-14T04:05:46;6.77;;;6.00;;
12171;SDS011;6149;52.418;13.668;2023-06-14T04:08:15;9.10;;;7.70;;
12171;SDS011;6149;52.418;13.668;2023-06-14T04:10:46;6.73;;;6.13;;
12171;SDS011;6149;52.418;13.668;2023-06-14T04:13:12;7.40;;;5.87;;
12171;SDS011;6149;52.418;13.668;2023-06-14T04:15:40;6.93;;;5.87;;
12171;SDS011;6149;52.418;13.668;2023-06-14T04:18:08;6.60;;;5.97;;
12171;SDS011;6149;52.418;13.668;2023-06-14T04:20:36;10.73;;;7.00;;
12171;SDS011;6149;52.418;13.668;2023-06-14T04:23:11;9.77;;;6.83;;
12171;SDS011;6149;52.418;13.668;2023-06-14T04:25:38;7.97;;;6.00;;
12171;SDS011;6149;52.418;13.668;2023-06-14T04:28:11;8.87;;;6.87;;
12171;SDS011;6149;52.418;13.668;2023-06-14T04:30:42;11.80;;;7.20;;
12171;SDS011;6149;52.418;13.668;2023-06-14T04:33:09;18.10;;;7.50;;
12171;SDS011;6149;52.418;13.668;2023-06-14T04:35:37;13.50;;;7.70;;
12171;SDS011;6149;52.418;13.668;2023-06-14T04:38:07;14.13;;;6.87;;
12171;SDS011;6149;52.418;13.668;2023-06-14T04:40:36;10.33;;;7.40;;
12171;SDS011;6149;52.418;13.668;2023-06-14T04:43:07;7.83;;;6.77;;
12171;SDS011;6149;52.418;13.668;2023-06-14T04:45:38;13.37;;;7.73;;
12171;SDS011;6149;52.418;13.668;2023-06-14T04:48:08;8.00;;;7.20;;
12171;SDS011;6149;52.418;13.668;2023-06-14T04:50:35;7.47;;;6.60;;
12171;SDS011;6149;52.418;13.668;2023-06-14T04:53:05;7.93;;;6.47;;
12171;SDS011;6149;52.418;13.668;2023-06-14T04:55:33;8.83;;;7.00;;
12171;SDS011;6149;52.418;13.668;2023-06-14T04:58:03;7.67;;;6.63;;
12171;SDS011;6149;52.418;13.668;2023-06-14T05:00:29;7.63;;;6.77;;
12171;SDS011;6149;52.418;13.668;2023-06-14T05:02:58;8.33;;;7.03;;
12171;SDS011;6149;52.418;13.668;2023-06-14T05:05:27;8.13;;;6.23;;
12171;SDS011;6149;52.418;13.668;2023-06-14T05:07:53;7.93;;;6.43;;
12171;SDS011;6149;52.418;13.668;2023-06-14T05:10:20;8.27;;;6.50;;
12171;SDS011;6149;52.418;13.668;2023-06-14T05:12:46;8.33;;;6.93;;
12171;SDS011;6149;52.418;13.668;2023-06-14T05:15:14;6.90;;;6.07;;
12171;SDS011;6149;52.418;13.668;2023-06-14T05:17:41;9.53;;;7.47;;
12171;SDS011;6149;52.418;13.668;2023-06-14T05:20:08;7.87;;;6.70;;
12171;SDS011;6149;52.418;13.668;2023-06-14T05:22:38;9.13;;;7.07;;
12171;SDS011;6149;52.418;13.668;2023-06-14T05:25:05;9.97;;;7.73;;
12171;SDS011;6149;52.418;13.668;2023-06-14T05:27:33;11.77;;;6.90;;
12171;SDS011;6149;52.418;13.668;2023-06-14T05:30:02;9.27;;;6.97;;
12171;SDS011;6149;52.418;13.668;2023-06-14T05:32:32;7.90;;;6.17;;
12171;SDS011;6149;52.418;13.668;2023-06-14T05:35:01;10.00;;;6.40;;
12171;SDS011;6149;52.418;13.668;2023-06-14T05:37:27;9.57;;;6.43;;
12171;SDS011;6149;52.418;13.668;2023-06-14T05:39:55;7.50;;;6.57;;
12171;SDS011;6149;52.418;13.668;2023-06-14T05:42:23;7.93;;;7.13;;
12171;SDS011;6149;52.418;13.668;2023-06-14T05:44:49;9.63;;;7.37;;
12171;SDS011;6149;52.418;13.668;2023-06-14T05:47:16;8.53;;;7.30;;
12171;SDS011;6149;52.418;13.668;2023-06-14T05:49:42;11.77;;;7.90;;
12171;SDS011;6149;52.418;13.668;2023-06-14T05:52:10;10.90;;;6.57;;
12171;SDS011;6149;52.418;13.668;2023-06-14T05:54:38;10.83;;;7.47;;
12171;SDS011;6149;52.418;13.668;2023-06-14T05:57:07;9.40;;;6.60;;
12171;SDS011;6149;52.418;13.668;2023-06-14T05:59:42;10.20;;;7.53;;
12171;SDS011;6149;52.418;13.668;2023-06-14T06:02:08;8.60;;;7.10;;
12171;SDS011;6149;52.418;13.668;2023-06-14T06:04:35;12.43;;;8.10;;
12171;SDS011;6149;52.418;13.668;2023-06-14T06:07:05;11.50;;;7.30;;
12171;SDS011;6149;52.418;13.668;2023-06-14T06:09:33;11.03;;;7.37;;
12171;SDS011;6149;52.418;13.668;2023-06-14T06:11:59;7.87;;;6.90;;
12171;SDS011;6149;52.418;13.668;2023-06-14T06:14:27;10.80;;;7.33;;
12171;SDS011;6149;52.418;13.668;2023-06-14T06:16:55;8.53;;;6.60;;
12171;SDS011;6149;52.418;13.668;2023-06-14T06:19:22;8.60;;;6.67;;
12171;SDS011;6149;52.418;13.668;2023-06-14T06:21:48;8.77;;;6.40;;
12171;SDS011;6149;52.418;13.668;2023-06-14T06:24:15;9.40;;;6.47;;
12171;SDS011;6149;52.418;13.668;2023-06-14T06:26:43;8.77;;;6.10;;
12171;SDS011;6149;52.418;13.668;2023-06-14T06:29:10;8.73;;;6.10;;
12171;SDS011;6149;52.418;13.668;2023-06-14T06:31:42;6.30;;;5.60;;
12171;SDS011;6149;52.418;13.668;2023-06-14T06:34:10;8.70;;;6.30;;
12171;SDS011;6149;52.418;13.668;2023-06-14T06:36:38;8.60;;;6.27;;
12171;SDS011;6149;52.418;13.668;2023-06-14T06:39:08;8.03;;;5.97;;
12171;SDS011;6149;52.418;13.668;2023-06-14T06:41:37;7.50;;;6.30;;
12171;SDS011;6149;52.418;13.668;2023-06-14T06:44:04;9.60;;;7.17;;
12171;SDS011;6149;52.418;13.668;2023-06-14T06:46:33;9.90;;;6.70;;
12171;SDS011;6149;52.418;13.668;2023-06-14T06:49:08;6.77;;;6.17;;
12171;SDS011;6149;52.418;13.668;2023-06-14T06:51:59;9.20;;;6.30;;
12171;SDS011;6149;52.418;13.668;2023-06-14T06:54:27;8.13;;;6.63;;
12171;SDS011;6149;52.418;13.668;2023-06-14T06:56:53;8.73;;;6.70;;
12171;SDS011;6149;52.418;13.668;2023-06-14T06:59:20;8.17;;;6.17;;
12171;SDS011;6149;52.418;13.668;2023-06-14T07:01:47;7.20;;;6.30;;
12171;SDS011;6149;52.418;13.668;2023-06-14T07:04:14;8.13;;;6.23;;
12171;SDS011;6149;52.418;13.668;2023-06-14T07:06:42;12.33;;;6.13;;
12171;SDS011;6149;52.418;13.668;2023-06-14T07:09:09;10.53;;;6.70;;
12171;SDS011;6149;52.418;13.668;2023-06-14T07:11:38;6.70;;;6.00;;
12171;SDS011;6149;52.418;13.668;2023-06-14T07:14:08;7.33;;;5.90;;
12171;SDS011;6149;52.418;13.668;2023-06-14T07:16:36;7.80;;;5.80;;
12171;SDS011;6149;52.418;13.668;2023-06-14T07:19:12;7.77;;;6.30;;
12171;SDS011;6149;52.418;13.668;2023-06-14T07:21:40;6.33;;;5.60;;
12171;SDS011;6149;52.418;13.668;2023-06-14T07:24:08;9.40;;;5.97;;
12171;SDS011;6149;52.418;13.668;2023-06-14T07:26:36;7.00;;;5.67;;
12171;SDS011;6149;52.418;13.668;2023-06-14T07:29:02;6.33;;;5.73;;
12171;SDS011;6149;52.418;13.668;2023-06-14T07:31:31;7.57;;;5.43;;
12171;SDS011;6149;52.418;13.668;2023-06-14T07:33:58;10.37;;;6.03;;
12171;SDS011;6149;52.418;13.668;2023-06-14T07:36:25;8.07;;;5.63;;
12171;SDS011;6149;52.418;13.668;2023-06-14T07:38:52;8.10;;;5.80;;
12171;SDS011;6149;52.418;13.668;2023-06-14T07:41:19;11.27;;;5.80;;
12171;SDS011;6149;52.418;13.668;2023-06-14T07:43:46;7.83;;;5.67;;
12171;SDS011;6149;52.418;13.668;2023-06-14T07:46:15;9.50;;;5.70;;
12171;SDS011;6149;52.418;13.668;2023-06-14T07:48:43;5.83;;;5.17;;
12171;SDS011;6149;52.418;13.668;2023-06-14T07:51:09;6.10;;;5.53;;
12171;SDS011;6149;52.418;13.668;2023-06-14T07:53:37;7.00;;;5.50;;
12171;SDS011;6149;52.418;13.668;2023-06-14T07:56:11;5.87;;;5.30;;
12171;SDS011;6149;52.418;13.668;2023-06-14T07:58:38;7.47;;;5.60;;
12171;SDS011;6149;52.418;13.668;2023-06-14T08:01:06;13.60;;;6.17;;
12171;SDS011;6149;52.418;13.668;2023-06-14T08:03:33;9.63;;;5.50;;
12171;SDS011;6149;52.418;13.668;2023-06-14T08:06:02;7.83;;;5.00;;
12171;SDS011;6149;52.418;13.668;2023-06-14T08:08:29;6.10;;;5.50;;
12171;SDS011;6149;52.418;13.668;2023-06-14T08:10:57;7.80;;;4.97;;
12171;SDS011;6149;52.418;13.668;2023-06-14T08:13:27;5.03;;;4.60;;
12171;SDS011;6149;52.418;13.668;2023-06-14T08:15:55;7.70;;;5.03;;
12171;SDS011;6149;52.418;13.668;2023-06-14T08:18:23;6.53;;;5.23;;
12171;SDS011;6149;52.418;13.668;2023-06-14T08:20:50;6.37;;;4.90;;
12171;SDS011;6149;52.418;13.668;2023-06-14T08:23:17;6.47;;;4.30;;
12171;SDS011;6149;52.418;13.668;2023-06-14T08:25:46;6.37;;;4.57;;
12171;SDS011;6149;52.418;13.668;2023-06-14T08:28:13;8.93;;;4.70;;
12171;SDS011;6149;52.418;13.668;2023-06-14T08:30:46;7.10;;;4.83;;
12171;SDS011;6149;52.418;13.668;2023-06-14T08:33:13;6.97;;;4.73;;
12171;SDS011;6149;52.418;13.668;2023-06-14T08:35:41;6.73;;;4.40;;
12171;SDS011;6149;52.418;13.668;2023-06-14T08:38:09;5.00;;;4.50;;
12171;SDS011;6149;52.418;13.668;2023-06-14T08:40:38;5.77;;;3.90;;
12171;SDS011;6149;52.418;13.668;2023-06-14T08:43:08;4.83;;;3.87;;
12171;SDS011;6149;52.418;13.668;2023-06-14T08:45:39;6.17;;;4.07;;
12171;SDS011;6149;52.418;13.668;2023-06-14T08:48:09;4.40;;;3.87;;
12171;SDS011;6149;52.418;13.668;2023-06-14T08:50:36;9.33;;;4.17;;
12171;SDS011;6149;52.418;13.668;2023-06-14T08:53:07;5.23;;;4.07;;
12171;SDS011;6149;52.418;13.668;2023-06-14T08:55:37;4.50;;;4.10;;
12171;SDS011;6149;52.418;13.668;2023-06-14T08:58:06;8.10;;;4.10;;
12171;SDS011;6149;52.418;13.668;2023-06-14T09:00:39;4.33;;;3.67;;
12171;SDS011;6149;52.418;13.668;2023-06-14T09:03:12;4.13;;;3.73;;
12171;SDS011;6149;52.418;13.668;2023-06-14T09:05:40;4.13;;;3.73;;
12171;SDS011;6149;52.418;13.668;2023-06-14T09:08:08;4.60;;;4.03;;
12171;SDS011;6149;52.418;13.668;2023-06-14T09:10:39;6.07;;;3.73;;
12171;SDS011;6149;52.418;13.668;2023-06-14T09:13:06;6.97;;;3.80;;
12171;SDS011;6149;52.418;13.668;2023-06-14T09:15:37;7.33;;;3.67;;
12171;SDS011;6149;52.418;13.668;2023-06-14T09:18:04;6.33;;;3.80;;
12171;SDS011;6149;52.418;13.668;2023-06-14T09:20:48;6.40;;;3.53;;
12171;SDS011;6149;52.418;13.668;2023-06-14T09:23:16;5.47;;;3.43;;
12171;SDS011;6149;52.418;13.668;2023-06-14T09:25:47;5.07;;;3.50;;
12171;SDS011;6149;52.418;13.668;2023-06-14T09:28:13;9.63;;;3.77;;
12171;SDS011;6149;52.418;13.668;2023-06-14T09:30:40;5.93;;;3.60;;
12171;SDS011;6149;52.418;13.668;2023-06-14T09:33:09;8.63;;;3.67;;
12171;SDS011;6149;52.418;13.668;2023-06-14T09:35:41;4.53;;;3.77;;
12171;SDS011;6149;52.418;13.668;2023-06-14T09:38:11;5.43;;;3.53;;
12171;SDS011;6149;52.418;13.668;2023-06-14T09:40:42;4.20;;;3.60;;
12171;SDS011;6149;52.418;13.668;2023-06-14T09:43:10;6.70;;;4.00;;
12171;SDS011;6149;52.418;13.668;2023-06-14T09:45:38;4.03;;;3.40;;
12171;SDS011;6149;52.418;13.668;2023-06-14T09:48:07;7.60;;;3.60;;
12171;SDS011;6149;52.418;13.668;2023-06-14T09:50:34;3.50;;;3.10;;
12171;SDS011;6149;52.418;13.668;2023-06-14T09:53:15;4.80;;;3.37;;
12171;SDS011;6149;52.418;13.668;2023-06-14T09:55:48;9.53;;;3.83;;
12171;SDS011;6149;52.418;13.668;2023-06-14T09:58:16;5.23;;;3.23;;
12171;SDS011;6149;52.418;13.668;2023-06-14T10:00:46;5.20;;;3.40;;
12171;SDS011;6149;52.418;13.668;2023-06-14T10:03:21;8.23;;;3.90;;
12171;SDS011;6149;52.418;13.668;2023-06-14T10:05:57;5.93;;;3.50;;
12171;SDS011;6149;52.418;13.668;2023-06-14T10:08:30;6.40;;;3.70;;
12171;SDS011;6149;52.418;13.668;2023-06-14T10:10:58;6.77;;;2.90;;
12171;SDS011;6149;52.418;13.668;2023-06-14T10:13:25;4.47;;;3.00;;
12171;SDS011;6149;52.418;13.668;2023-06-14T10:15:57;4.17;;;3.07;;
12171;SDS011;6149;52.418;13.668;2023-06-14T10:18:31;5.83;;;3.23;;
12171;SDS011;6149;52.418;13.668;2023-06-14T10:21:18;5.63;;;3.20;;
12171;SDS011;6149;52.418;13.668;2023-06-14T10:23:52;7.33;;;3.37;;
12171;SDS011;6149;52.418;13.668;2023-06-14T10:26:20;4.20;;;3.33;;
12171;SDS011;6149;52.418;13.668;2023-06-14T10:28:56;5.87;;;3.20;;
12171;SDS011;6149;52.418;13.668;2023-06-14T10:31:40;6.30;;;3.20;;
12171;SDS011;6149;52.418;13.668;2023-06-14T10:34:08;5.13;;;3.60;;
12171;SDS011;6149;52.418;13.668;2023-06-14T10:36:41;7.33;;;3.43;;
12171;SDS011;6149;52.418;13.668;2023-06-14T10:39:13;7.23;;;3.43;;
12171;SDS011;6149;52.418;13.668;2023-06-14T10:41:56;4.67;;;3.50;;
12171;SDS011;6149;52.418;13.668;2023-06-14T10:44:31;5.33;;;3.30;;
12171;SDS011;6149;52.418;13.668;2023-06-14T10:47:10;3.47;;;3.13;;
12171;SDS011;6149;52.418;13.668;2023-06-14T10:49:49;6.00;;;3.53;;
12171;SDS011;6149;52.418;13.668;2023-06-14T10:52:22;5.53;;;3.87;;
12171;SDS011;6149;52.418;13.668;2023-06-14T10:55:00;7.73;;;3.63;;
12171;SDS011;6149;52.418;13.668;2023-06-14T10:57:41;5.60;;;3.87;;
12171;SDS011;6149;52.418;13.668;2023-06-14T11:00:12;6.37;;;4.00;;
12171;SDS011;6149;52.418;13.668;2023-06-14T11:02:51;4.77;;;3.63;;
12171;SDS011;6149;52.418;13.668;2023-06-14T11:05:49;4.13;;;3.50;;
12171;SDS011;6149;52.418;13.668;2023-06-14T11:08:32;4.37;;;3.33;;
12171;SDS011;6149;52.418;13.668;2023-06-14T11:11:33;4.20;;;3.40;;
12171;SDS011;6149;52.418;13.668;2023-06-14T11:14:05;4.87;;;3.80;;
12171;SDS011;6149;52.418;13.668;2023-06-14T11:16:36;5.10;;;3.80;;
12171;SDS011;6149;52.418;13.668;2023-06-14T11:19:05;5.67;;;3.70;;
12171;SDS011;6149;52.418;13.668;2023-06-14T11:21:32;6.57;;;3.80;;
12171;SDS011;6149;52.418;13.668;2023-06-14T11:24:00;5.77;;;3.60;;
12171;SDS011;6149;52.418;13.668;2023-06-14T11:26:28;8.30;;;3.97;;
12171;SDS011;6149;52.418;13.668;2023-06-14T11:28:59;5.77;;;4.23;;
12171;SDS011;6149;52.418;13.668;2023-06-14T11:31:27;4.63;;;3.80;;
12171;SDS011;6149;52.418;13.668;2023-06-14T11:33:54;6.07;;;3.50;;
12171;SDS011;6149;52.418;13.668;2023-06-14T11:36:21;5.53;;;3.60;;
12171;SDS011;6149;52.418;13.668;2023-06-14T11:38:48;4.67;;;3.77;;
12171;SDS011;6149;52.418;13.668;2023-06-14T11:41:17;9.67;;;4.13;;
12171;SDS011;6149;52.418;13.668;2023-06-14T11:43:44;5.00;;;3.53;;
12171;SDS011;6149;52.418;13.668;2023-06-14T11:46:14;6.13;;;3.60;;
12171;SDS011;6149;52.418;13.668;2023-06-14T11:48:43;7.47;;;3.63;;
12171;SDS011;6149;52.418;13.668;2023-06-14T11:51:13;5.37;;;3.40;;
12171;SDS011;6149;52.418;13.668;2023-06-14T11:53:40;4.40;;;3.50;;
12171;SDS011;6149;52.418;13.668;2023-06-14T11:56:10;6.90;;;4.20;;
12171;SDS011;6149;52.418;13.668;2023-06-14T11:58:44;4.30;;;3.63;;
12171;SDS011;6149;52.418;13.668;2023-06-14T12:01:14;5.60;;;3.47;;
12171;SDS011;6149;52.418;13.668;2023-06-14T12:03:47;5.00;;;3.43;;
12171;SDS011;6149;52.418;13.668;2023-06-14T12:06:14;4.07;;;3.63;;
12171;SDS011;6149;52.418;13.668;2023-06-14T12:08:44;6.23;;;3.87;;
12171;SDS011;6149;52.418;13.668;2023-06-14T12:11:14;7.23;;;3.87;;
12171;SDS011;6149;52.418;13.668;2023-06-14T12:13:43;4.33;;;3.53;;
12171;SDS011;6149;52.418;13.668;2023-06-14T12:16:13;6.53;;;3.60;;
12171;SDS011;6149;52.418;13.668;2023-06-14T12:18:40;6.80;;;3.43;;
12171;SDS011;6149;52.418;13.668;2023-06-14T12:21:12;5.83;;;3.80;;
12171;SDS011;6149;52.418;13.668;2023-06-14T12:23:39;5.00;;;3.70;;
12171;SDS011;6149;52.418;13.668;2023-06-14T12:26:09;7.43;;;3.60;;
12171;SDS011;6149;52.418;13.668;2023-06-14T12:28:35;5.30;;;3.83;;
12171;SDS011;6149;52.418;13.668;2023-06-14T12:31:06;5.47;;;3.73;;
12171;SDS011;6149;52.418;13.668;2023-06-14T12:33:35;6.47;;;4.00;;
12171;SDS011;6149;52.418;13.668;2023-06-14T12:36:05;5.70;;;3.83;;
12171;SDS011;6149;52.418;13.668;2023-06-14T12:38:38;8.30;;;3.63;;
12171;SDS011;6149;52.418;13.668;2023-06-14T12:41:05;6.27;;;3.73;;
12171;SDS011;6149;52.418;13.668;2023-06-14T12:43:32;4.93;;;3.43;;
12171;SDS011;6149;52.418;13.668;2023-06-14T12:45:59;7.40;;;3.80;;
12171;SDS011;6149;52.418;13.668;2023-06-14T12:48:28;4.43;;;3.57;;
12171;SDS011;6149;52.418;13.668;2023-06-14T12:50:57;5.83;;;3.73;;
12171;SDS011;6149;52.418;13.668;2023-06-14T12:53:23;5.03;;;3.60;;
12171;SDS011;6149;52.418;13.668;2023-06-14T12:55:50;9.43;;;3.83;;
12171;SDS011;6149;52.418;13.668;2023-06-14T12:58:17;4.77;;;3.37;;
12171;SDS011;6149;52.418;13.668;2023-06-14T13:00:46;5.20;;;3.77;;
12171;SDS011;6149;52.418;13.668;2023-06-14T13:03:13;9.00;;;4.30;;
12171;SDS011;6149;52.418;13.668;2023-06-14T13:08:35;6.07;;;3.80;;
12171;SDS011;6149;52.418;13.668;2023-06-14T13:11:16;6.03;;;4.03;;
12171;SDS011;6149;52.418;13.668;2023-06-14T13:13:44;5.80;;;3.70;;
12171;SDS011;6149;52.418;13.668;2023-06-14T13:16:12;6.00;;;3.70;;
12171;SDS011;6149;52.418;13.668;2023-06-14T13:18:39;6.90;;;3.30;;
12171;SDS011;6149;52.418;13.668;2023-06-14T13:21:11;5.87;;;3.90;;
12171;SDS011;6149;52.418;13.668;2023-06-14T13:23:39;8.33;;;4.03;;
12171;SDS011;6149;52.418;13.668;2023-06-14T13:26:07;6.00;;;3.73;;
12171;SDS011;6149;52.418;13.668;2023-06-14T13:28:37;9.30;;;3.50;;
12171;SDS011;6149;52.418;13.668;2023-06-14T13:31:06;4.57;;;3.90;;
12171;SDS011;6149;52.418;13.668;2023-06-14T13:33:37;9.20;;;3.87;;
12171;SDS011;6149;52.418;13.668;2023-06-14T13:36:04;5.17;;;3.60;;
12171;SDS011;6149;52.418;13.668;2023-06-14T13:38:32;4.93;;;3.57;;
12171;SDS011;6149;52.418;13.668;2023-06-14T13:40:58;8.00;;;3.70;;
12171;SDS011;6149;52.418;13.668;2023-06-14T13:43:25;7.37;;;3.97;;
12171;SDS011;6149;52.418;13.668;2023-06-14T13:45:52;4.63;;;3.43;;
12171;SDS011;6149;52.418;13.668;2023-06-14T13:48:19;5.63;;;3.87;;
12171;SDS011;6149;52.418;13.668;2023-06-14T13:50:48;4.33;;;3.37;;
12171;SDS011;6149;52.418;13.668;2023-06-14T13:53:15;5.07;;;3.90;;
12171;SDS011;6149;52.418;13.668;2023-06-14T13:55:44;4.93;;;3.40;;
12171;SDS011;6149;52.418;13.668;2023-06-14T13:58:12;7.73;;;3.20;;
12171;SDS011;6149;52.418;13.668;2023-06-14T14:00:39;6.33;;;3.67;;
12171;SDS011;6149;52.418;13.668;2023-06-14T14:03:07;8.20;;;4.13;;
12171;SDS011;6149;52.418;13.668;2023-06-14T14:05:38;6.47;;;3.80;;
12171;SDS011;6149;52.418;13.668;2023-06-14T14:08:09;5.30;;;3.60;;
12171;SDS011;6149;52.418;13.668;2023-06-14T14:10:40;5.43;;;3.83;;
12171;SDS011;6149;52.418;13.668;2023-06-14T14:13:11;7.17;;;4.10;;
12171;SDS011;6149;52.418;13.668;2023-06-14T14:15:39;5.43;;;3.80;;
12171;SDS011;6149;52.418;13.668;2023-06-14T14:18:07;5.67;;;3.77;;
12171;SDS011;6149;52.418;13.668;2023-06-14T14:20:34;6.37;;;3.77;;
12171;SDS011;6149;52.418;13.668;2023-06-14T14:23:03;6.90;;;4.03;;
12171;SDS011;6149;52.418;13.668;2023-06-14T14:25:30;7.83;;;4.20;;
12171;SDS011;6149;52.418;13.668;2023-06-14T14:27:58;6.00;;;3.80;;
12171;SDS011;6149;52.418;13.668;2023-06-14T14:30:25;5.73;;;3.83;;
12171;SDS011;6149;52.418;13.668;2023-06-14T14:32:52;7.50;;;3.90;;
12171;SDS011;6149;52.418;13.668;2023-06-14T14:35:19;5.37;;;3.57;;
12171;SDS011;6149;52.418;13.668;2023-06-14T14:37:47;5.43;;;3.60;;
12171;SDS011;6149;52.418;13.668;2023-06-14T14:40:15;7.60;;;3.90;;
12171;SDS011;6149;52.418;13.668;2023-06-14T14:42:43;5.73;;;3.80;;
12171;SDS011;6149;52.418;13.668;2023-06-14T14:45:11;5.67;;;3.83;;
12171;SDS011;6149;52.418;13.668;2023-06-14T14:47:40;6.03;;;4.17;;
12171;SDS011;6149;52.418;13.668;2023-06-14T14:50:09;7.20;;;4.13;;
12171;SDS011;6149;52.418;13.668;2023-06-14T14:52:36;3.67;;;3.37;;
12171;SDS011;6149;52.418;13.668;2023-06-14T14:55:05;4.33;;;3.63;;
12171;SDS011;6149;52.418;13.668;2023-06-14T14:57:36;7.87;;;3.97;;
12171;SDS011;6149;52.418;13.668;2023-06-14T15:00:03;6.60;;;4.33;;
12171;SDS011;6149;52.418;13.668;2023-06-14T15:02:44;9.57;;;4.00;;
12171;SDS011;6149;52.418;13.668;2023-06-14T15:05:12;7.50;;;3.73;;